createdAt,value
2023-05-31T00:00:29.432Z,6.03
2023-05-31T00:02:57.819Z,5.90
2023-05-31T00:05:27.621Z,4.88
2023-05-31T00:07:55.869Z,3.33
2023-05-31T00:10:24.326Z,4.35
2023-05-31T00:12:52.601Z,3.63
2023-05-31T00:15:20.907Z,4.13
2023-05-31T00:17:50.962Z,3.05
2023-05-31T00:20:19.709Z,3.83
2023-05-31T00:22:50.759Z,6.47
2023-05-31T00:25:19.091Z,2.97
2023-05-31T00:27:47.406Z,6.13
2023-05-31T00:30:16.204Z,3.47
2023-05-31T00:32:44.584Z,5.22
2023-05-31T00:35:13.055Z,4.75
2023-05-31T00:37:41.313Z,3.88
2023-05-31T00:40:12.219Z,3.05
2023-05-31T00:42:40.480Z,4.43
2023-05-31T00:45:10.475Z,3.83
2023-05-31T00:47:38.774Z,4.60
2023-05-31T00:50:07.896Z,4.60
2023-05-31T00:52:36.766Z,3.33
2023-05-31T00:55:05.057Z,4.05
2023-05-31T00:57:34.935Z,4.45
2023-05-31T01:00:05.038Z,4.50
2023-05-31T01:02:34.155Z,3.13
2023-05-31T01:05:02.901Z,5.03
2023-05-31T01:07:33.710Z,5.80
2023-05-31T01:10:02.089Z,5.18
2023-05-31T01:12:36.010Z,4.32
2023-05-31T01:15:09.466Z,4.00
2023-05-31T01:17:42.260Z,4.47
2023-05-31T01:20:12.730Z,7.43
2023-05-31T01:22:51.425Z,4.20
2023-05-31T01:25:30.062Z,6.43
2023-05-31T01:28:02.126Z,6.53
2023-05-31T01:30:31.139Z,5.82
2023-05-31T01:33:00.617Z,5.95
2023-05-31T01:35:29.332Z,5.38
2023-05-31T01:37:57.643Z,4.28
2023-05-31T01:40:25.934Z,3.47
2023-05-31T01:42:54.649Z,5.47
2023-05-31T01:45:24.758Z,3.42
2023-05-31T01:47:56.550Z,3.70
2023-05-31T01:50:26.290Z,5.38
2023-05-31T01:52:54.779Z,4.10
2023-05-31T01:55:23.330Z,4.75
2023-05-31T01:57:52.298Z,4.65
2023-05-31T02:00:21.091Z,4.80
2023-05-31T02:02:51.102Z,6.57
2023-05-31T02:05:19.539Z,5.45
2023-05-31T02:07:48.465Z,4.30
2023-05-31T02:10:16.807Z,3.67
2023-05-31T02:12:45.134Z,8.30
2023-05-31T02:15:14.126Z,5.80
2023-05-31T02:17:44.711Z,5.10
2023-05-31T02:20:15.645Z,3.90
2023-05-31T02:22:44.182Z,7.38
2023-05-31T02:25:13.045Z,5.30
2023-05-31T02:27:41.817Z,5.60
2023-05-31T02:30:10.880Z,8.25
2023-05-31T02:32:39.702Z,4.88
2023-05-31T02:35:09.156Z,5.10
2023-05-31T02:37:39.426Z,6.05
2023-05-31T02:40:09.748Z,4.05
2023-05-31T02:42:38.673Z,5.85
2023-05-31T02:45:07.645Z,4.90
2023-05-31T02:47:35.934Z,3.58
2023-05-31T02:50:04.205Z,5.28
2023-05-31T02:52:32.953Z,7.78
2023-05-31T02:55:02.791Z,4.72
2023-05-31T02:57:31.200Z,4.97
2023-05-31T03:00:00.242Z,4.07
2023-05-31T03:02:28.576Z,5.68
2023-05-31T03:04:56.955Z,5.95
2023-05-31T03:07:25.233Z,7.35
2023-05-31T03:09:53.478Z,4.82
2023-05-31T03:12:23.097Z,5.57
2023-05-31T03:14:51.360Z,4.50
2023-05-31T03:17:19.668Z,4.25
2023-05-31T03:19:48.010Z,10.15
2023-05-31T03:22:16.317Z,5.15
2023-05-31T03:24:45.023Z,5.55
2023-05-31T03:27:14.667Z,7.90
2023-05-31T03:29:46.012Z,6.05
2023-05-31T03:32:14.315Z,7.15
2023-05-31T03:34:42.619Z,5.85
2023-05-31T03:37:11.171Z,4.38
2023-05-31T03:39:39.454Z,5.22
2023-05-31T03:42:08.263Z,4.28
2023-05-31T03:44:36.552Z,5.63
2023-05-31T03:47:06.389Z,7.68
2023-05-31T03:49:34.727Z,5.65
2023-05-31T03:52:03.028Z,4.45
2023-05-31T03:54:31.993Z,8.38
2023-05-31T03:57:00.273Z,8.23
2023-05-31T03:59:28.552Z,37.90
2023-05-31T04:01:57.162Z,54.30
2023-05-31T04:04:26.906Z,59.15
2023-05-31T04:06:55.337Z,42.17
2023-05-31T04:09:24.648Z,23.98
2023-05-31T04:11:52.932Z,8.07
2023-05-31T04:14:21.215Z,10.35
2023-05-31T04:16:49.489Z,6.85
2023-05-31T04:19:17.956Z,5.65
2023-05-31T04:21:47.876Z,5.95
2023-05-31T04:24:16.242Z,6.63
2023-05-31T04:26:44.525Z,5.10
2023-05-31T04:29:12.812Z,5.95
2023-05-31T04:31:50.739Z,4.53
2023-05-31T04:34:20.577Z,5.00
2023-05-31T04:36:51.476Z,6.88
2023-05-31T04:39:22.825Z,5.35
2023-05-31T04:41:51.210Z,6.05
2023-05-31T04:44:20.856Z,5.03
2023-05-31T04:46:49.144Z,7.13
2023-05-31T04:49:17.633Z,5.13
2023-05-31T04:51:46.159Z,3.63
2023-05-31T04:54:15.800Z,5.63
2023-05-31T04:56:44.112Z,4.47
2023-05-31T04:59:12.393Z,7.25
2023-05-31T05:01:41.513Z,6.80
2023-05-31T05:04:10.017Z,6.82
2023-05-31T05:06:38.733Z,5.95
2023-05-31T05:09:07.108Z,6.32
2023-05-31T05:11:36.769Z,5.40
2023-05-31T05:14:05.039Z,6.90
2023-05-31T05:16:33.360Z,5.15
2023-05-31T05:19:01.681Z,4.03
2023-05-31T05:21:30.702Z,4.50
2023-05-31T05:23:58.980Z,5.32
2023-05-31T05:26:29.114Z,4.22
2023-05-31T05:29:02.263Z,4.65
2023-05-31T05:31:32.587Z,3.97
2023-05-31T05:34:00.985Z,4.75
2023-05-31T05:36:29.575Z,6.20
2023-05-31T05:38:59.662Z,4.07
2023-05-31T05:41:29.710Z,6.30
2023-05-31T05:44:03.552Z,6.35
2023-05-31T05:49:00.165Z,4.60
2023-05-31T05:51:28.469Z,3.72
2023-05-31T05:53:56.767Z,4.72
2023-05-31T05:56:25.143Z,6.30
2023-05-31T05:58:53.410Z,3.75
2023-05-31T06:01:25.115Z,4.72
2023-05-31T06:03:53.527Z,3.95
2023-05-31T06:06:25.697Z,4.20
2023-05-31T06:08:55.112Z,3.25
2023-05-31T06:11:23.737Z,6.90
2023-05-31T06:13:59.099Z,6.80
2023-05-31T06:16:28.817Z,5.13
2023-05-31T06:18:57.108Z,5.88
2023-05-31T06:21:25.511Z,5.72
2023-05-31T06:23:53.781Z,5.50
2023-05-31T06:26:22.046Z,7.80
2023-05-31T06:28:51.870Z,5.60
2023-05-31T06:31:20.237Z,4.13
2023-05-31T06:33:50.639Z,4.43
2023-05-31T06:36:18.916Z,6.80
2023-05-31T06:38:47.558Z,5.32
2023-05-31T06:41:15.966Z,3.47
2023-05-31T06:43:44.233Z,3.47
2023-05-31T06:46:13.664Z,4.10
2023-05-31T06:48:41.941Z,5.63
2023-05-31T06:51:11.640Z,2.83
2023-05-31T06:53:39.941Z,4.07
2023-05-31T06:56:08.531Z,2.58
2023-05-31T06:58:36.928Z,5.43
2023-05-31T07:01:05.418Z,3.88
2023-05-31T07:03:34.030Z,5.70
2023-05-31T07:06:02.575Z,4.90
2023-05-31T07:08:32.323Z,4.13
2023-05-31T07:11:01.811Z,4.03
2023-05-31T07:13:30.239Z,5.13
2023-05-31T07:15:58.842Z,3.33
2023-05-31T07:18:27.187Z,2.85
2023-05-31T07:20:57.851Z,4.75
2023-05-31T07:23:26.353Z,5.70
2023-05-31T07:25:58.487Z,4.35
2023-05-31T07:28:26.788Z,6.35
2023-05-31T07:30:55.056Z,4.47
2023-05-31T07:33:28.445Z,3.63
2023-05-31T07:35:58.876Z,2.75
2023-05-31T07:38:27.801Z,3.50
2023-05-31T07:40:57.455Z,3.45
2023-05-31T07:43:25.984Z,3.65
2023-05-31T07:45:55.403Z,5.78
2023-05-31T07:48:23.673Z,5.97
2023-05-31T07:50:52.249Z,3.35
2023-05-31T07:53:20.508Z,3.70
2023-05-31T07:55:49.043Z,4.47
2023-05-31T07:58:18.740Z,5.43
2023-05-31T08:00:47.513Z,4.35
2023-05-31T08:03:16.026Z,5.45
2023-05-31T08:05:44.851Z,2.50
2023-05-31T08:08:13.988Z,4.57
2023-05-31T08:10:42.325Z,3.03
2023-05-31T08:13:10.552Z,3.78
2023-05-31T08:15:40.193Z,3.72
2023-05-31T08:18:08.503Z,5.63
2023-05-31T08:20:36.962Z,2.33
2023-05-31T08:23:05.262Z,5.80
2023-05-31T08:25:33.945Z,4.70
2023-05-31T08:28:02.233Z,4.32
2023-05-31T08:30:30.671Z,3.42
2023-05-31T08:33:00.449Z,5.80
2023-05-31T08:35:28.730Z,3.40
2023-05-31T08:37:56.990Z,4.72
2023-05-31T08:40:25.524Z,5.78
2023-05-31T08:42:54.868Z,5.32
2023-05-31T08:45:23.158Z,3.97
2023-05-31T08:47:59.589Z,3.83
2023-05-31T08:50:29.730Z,4.25
2023-05-31T08:52:58.702Z,3.45
2023-05-31T08:55:29.397Z,3.80
2023-05-31T08:57:59.055Z,3.17
2023-05-31T09:00:27.567Z,5.45
2023-05-31T09:02:56.249Z,4.70
2023-05-31T09:05:24.792Z,3.38
2023-05-31T09:07:55.311Z,4.05
2023-05-31T09:10:23.630Z,4.15
2023-05-31T09:12:51.876Z,4.93
2023-05-31T09:15:20.172Z,3.72
2023-05-31T09:17:50.038Z,3.05
2023-05-31T09:20:19.967Z,4.28
2023-05-31T09:22:50.292Z,3.88
2023-05-31T09:25:21.669Z,3.63
2023-05-31T09:27:49.980Z,4.47
2023-05-31T09:30:18.393Z,3.58
2023-05-31T09:32:55.603Z,4.97
2023-05-31T09:35:28.463Z,3.35
2023-05-31T09:37:57.863Z,4.45
2023-05-31T09:40:28.637Z,3.00
2023-05-31T09:42:57.173Z,4.90
2023-05-31T09:45:26.087Z,4.28
2023-05-31T09:47:54.573Z,2.95
2023-05-31T09:50:23.809Z,5.78
2023-05-31T09:52:57.262Z,3.83
2023-05-31T09:57:58.704Z,3.00
2023-05-31T10:00:28.365Z,2.65
2023-05-31T10:02:57.339Z,4.30
2023-05-31T10:05:25.649Z,4.45
2023-05-31T10:07:58.175Z,4.30
2023-05-31T10:10:26.655Z,3.38
2023-05-31T10:13:03.256Z,4.15
2023-05-31T10:15:34.128Z,3.95
2023-05-31T10:18:04.861Z,3.60
2023-05-31T10:20:35.498Z,3.33
2023-05-31T10:23:04.097Z,3.05
2023-05-31T10:25:34.622Z,4.65
2023-05-31T10:28:08.845Z,4.30
2023-05-31T10:30:38.066Z,3.60
2023-05-31T10:33:09.312Z,4.20
2023-05-31T10:35:37.656Z,3.40
2023-05-31T10:38:06.212Z,3.90
2023-05-31T10:40:36.897Z,3.13
2023-05-31T10:43:10.577Z,3.60
2023-05-31T10:45:41.537Z,3.17
2023-05-31T10:48:16.290Z,3.20
2023-05-31T10:50:57.442Z,4.57
2023-05-31T10:53:30.073Z,4.88
2023-05-31T10:56:07.391Z,4.15
2023-05-31T10:58:39.321Z,4.03
2023-05-31T11:01:09.432Z,3.75
2023-05-31T11:03:41.096Z,4.03
2023-05-31T11:06:12.837Z,5.55
2023-05-31T11:08:41.309Z,5.28
2023-05-31T11:11:28.634Z,3.85
2023-05-31T11:14:04.260Z,3.30
2023-05-31T11:16:34.369Z,5.15
2023-05-31T11:19:07.096Z,3.28
2023-05-31T11:21:51.591Z,3.20
2023-05-31T11:24:32.681Z,6.47
2023-05-31T11:27:01.752Z,4.20
2023-05-31T11:29:45.243Z,2.92
2023-05-31T11:34:55.105Z,3.67
2023-05-31T11:37:24.632Z,3.75
2023-05-31T11:39:54.268Z,4.53
2023-05-31T11:42:24.129Z,3.40
2023-05-31T11:44:53.077Z,2.95
2023-05-31T11:47:23.096Z,5.25
2023-05-31T11:49:55.059Z,3.47
2023-05-31T11:52:23.751Z,3.88
2023-05-31T11:54:52.048Z,4.45
2023-05-31T11:57:21.795Z,4.43
2023-05-31T11:59:50.191Z,3.75
2023-05-31T12:02:19.417Z,3.60
2023-05-31T12:04:47.794Z,5.35
2023-05-31T12:07:20.675Z,4.78
2023-05-31T12:09:49.255Z,5.70
2023-05-31T12:12:17.760Z,4.78
2023-05-31T12:14:52.202Z,6.18
2023-05-31T12:17:20.836Z,3.60
2023-05-31T12:19:50.133Z,4.72
2023-05-31T12:22:19.829Z,2.55
2023-05-31T12:24:53.315Z,2.72
2023-05-31T12:27:29.570Z,4.72
2023-05-31T12:30:03.007Z,5.05
2023-05-31T12:32:31.981Z,2.67
2023-05-31T12:35:07.500Z,4.22
2023-05-31T12:37:37.737Z,2.42
2023-05-31T12:40:12.553Z,3.10
2023-05-31T12:42:41.178Z,3.13
2023-05-31T12:45:10.017Z,4.32
2023-05-31T12:47:38.883Z,2.03
2023-05-31T12:50:08.360Z,2.72
2023-05-31T12:52:39.967Z,3.10
2023-05-31T12:55:09.214Z,4.07
2023-05-31T12:57:37.493Z,3.03
2023-05-31T13:00:11.289Z,3.08
2023-05-31T13:02:42.706Z,3.13
2023-05-31T13:05:11.612Z,3.88
2023-05-31T13:07:47.249Z,4.47
2023-05-31T13:10:17.001Z,4.25
2023-05-31T13:12:45.425Z,7.18
2023-05-31T13:15:13.955Z,5.22
2023-05-31T13:17:42.540Z,3.40
2023-05-31T13:20:13.383Z,4.72
2023-05-31T13:22:41.853Z,3.72
2023-05-31T13:25:12.286Z,3.60
2023-05-31T13:27:41.018Z,2.80
2023-05-31T13:30:10.379Z,2.67
2023-05-31T13:32:39.057Z,5.53
2023-05-31T13:35:09.384Z,3.60
2023-05-31T13:37:37.802Z,3.83
2023-05-31T13:40:06.672Z,4.47
2023-05-31T13:42:36.552Z,3.25
2023-05-31T13:45:07.579Z,4.47
2023-05-31T13:47:36.720Z,2.70
2023-05-31T13:50:05.247Z,4.03
2023-05-31T13:52:33.512Z,3.40
2023-05-31T13:55:01.892Z,5.13
2023-05-31T13:57:32.824Z,3.25
2023-05-31T14:00:05.144Z,5.13
2023-05-31T14:02:37.617Z,2.87
2023-05-31T14:05:06.367Z,2.30
2023-05-31T14:07:37.010Z,8.77
2023-05-31T14:10:05.880Z,3.90
2023-05-31T14:12:34.601Z,4.85
2023-05-31T14:15:05.505Z,6.47
2023-05-31T14:17:34.098Z,2.90
2023-05-31T14:20:02.889Z,2.67
2023-05-31T14:22:31.656Z,3.97
2023-05-31T14:25:00.040Z,6.18
2023-05-31T14:27:28.322Z,2.88
2023-05-31T14:29:58.858Z,2.88
2023-05-31T14:32:28.512Z,3.97
2023-05-31T14:34:57.034Z,2.85
2023-05-31T14:37:33.032Z,3.28
2023-05-31T14:40:06.176Z,3.08
2023-05-31T14:42:35.262Z,3.95
2023-05-31T14:45:04.838Z,3.40
2023-05-31T14:47:34.542Z,4.28
2023-05-31T14:50:03.018Z,3.42
2023-05-31T14:52:36.614Z,3.97
2023-05-31T14:55:05.103Z,3.78
2023-05-31T14:57:33.673Z,3.13
2023-05-31T15:00:07.403Z,3.33
2023-05-31T15:02:37.097Z,14.98
2023-05-31T15:05:05.556Z,10.38
2023-05-31T15:07:33.852Z,5.28
2023-05-31T15:10:03.839Z,2.95
2023-05-31T15:12:32.089Z,3.53
2023-05-31T15:15:02.325Z,5.88
2023-05-31T15:17:30.706Z,3.65
2023-05-31T15:20:02.489Z,3.65
2023-05-31T15:22:31.559Z,4.18
2023-05-31T15:25:02.940Z,5.90
2023-05-31T15:27:31.213Z,6.20
2023-05-31T15:29:59.665Z,2.20
2023-05-31T15:32:28.184Z,2.40
2023-05-31T15:34:56.588Z,3.60
2023-05-31T15:37:26.625Z,5.05
2023-05-31T15:39:55.250Z,2.20
2023-05-31T15:42:23.683Z,3.63
2023-05-31T15:44:51.997Z,2.67
2023-05-31T15:47:21.385Z,12.93
2023-05-31T15:49:50.338Z,4.35
2023-05-31T15:52:18.828Z,2.70
2023-05-31T15:54:48.941Z,4.10
2023-05-31T15:57:17.368Z,3.55
2023-05-31T15:59:45.665Z,3.58
2023-05-31T16:02:14.056Z,3.83
2023-05-31T16:04:42.396Z,3.53
2023-05-31T16:07:11.586Z,2.97
2023-05-31T16:09:41.102Z,2.83
2023-05-31T16:12:11.311Z,2.13
2023-05-31T16:14:39.798Z,3.28
2023-05-31T16:17:08.546Z,3.53
2023-05-31T16:19:36.848Z,3.30
2023-05-31T16:22:05.482Z,5.25
2023-05-31T16:24:33.884Z,5.07
2023-05-31T16:27:03.727Z,4.28
2023-05-31T16:29:35.424Z,10.68
2023-05-31T16:32:04.090Z,2.97
2023-05-31T16:34:33.529Z,3.40
2023-05-31T16:37:02.458Z,3.35
2023-05-31T16:39:31.671Z,4.03
2023-05-31T16:42:00.306Z,2.78
2023-05-31T16:44:28.682Z,4.13
2023-05-31T16:46:58.400Z,2.90
2023-05-31T16:49:27.008Z,2.58
2023-05-31T16:51:55.558Z,3.03
2023-05-31T16:54:25.029Z,3.75
2023-05-31T16:56:53.360Z,5.05
2023-05-31T16:59:21.665Z,2.53
2023-05-31T17:01:49.994Z,2.60
2023-05-31T17:04:19.731Z,2.63
2023-05-31T17:06:48.314Z,3.85
2023-05-31T17:09:16.647Z,3.60
2023-05-31T17:11:44.939Z,2.60
2023-05-31T17:14:13.399Z,2.97
2023-05-31T17:16:42.316Z,3.17
2023-05-31T17:19:10.701Z,3.30
2023-05-31T17:21:40.448Z,2.53
2023-05-31T17:24:08.824Z,3.33
2023-05-31T17:26:37.100Z,3.75
2023-05-31T17:29:06.052Z,2.83
2023-05-31T17:31:34.629Z,4.68
2023-05-31T17:34:02.986Z,3.08
2023-05-31T17:36:31.367Z,4.13
2023-05-31T17:39:01.076Z,3.80
2023-05-31T17:41:29.353Z,3.92
2023-05-31T17:43:57.629Z,3.72
2023-05-31T17:46:26.838Z,3.72
2023-05-31T17:48:55.619Z,5.82
2023-05-31T17:51:23.994Z,2.17
2023-05-31T17:53:52.315Z,4.10
2023-05-31T17:56:22.971Z,3.72
2023-05-31T17:58:51.452Z,2.75
2023-05-31T18:01:19.794Z,2.60
2023-05-31T18:03:48.177Z,4.90
2023-05-31T18:06:16.630Z,3.88
2023-05-31T18:08:44.988Z,3.65
2023-05-31T18:11:13.523Z,5.43
2023-05-31T18:13:43.191Z,3.55
2023-05-31T18:16:11.545Z,4.07
2023-05-31T18:18:39.842Z,3.35
2023-05-31T18:21:08.633Z,2.55
2023-05-31T18:23:38.824Z,5.78
2023-05-31T18:26:07.579Z,3.00
2023-05-31T18:28:37.053Z,4.10
2023-05-31T18:31:07.918Z,5.80
2023-05-31T18:33:38.029Z,3.30
2023-05-31T18:36:06.391Z,2.25
2023-05-31T18:38:45.064Z,3.17
2023-05-31T18:41:13.588Z,3.15
2023-05-31T18:43:41.873Z,3.47
2023-05-31T18:46:11.860Z,3.92
2023-05-31T18:48:40.235Z,3.33
2023-05-31T18:51:08.523Z,3.08
2023-05-31T18:53:37.075Z,5.65
2023-05-31T18:56:05.366Z,3.33
2023-05-31T18:58:33.635Z,3.35
2023-05-31T19:01:02.211Z,4.10
2023-05-31T19:03:32.232Z,5.28
2023-05-31T19:06:02.004Z,6.80
2023-05-31T19:08:30.614Z,5.35
2023-05-31T19:11:01.435Z,4.90
2023-05-31T19:13:29.812Z,2.45
2023-05-31T19:15:58.541Z,3.58
2023-05-31T19:18:27.417Z,2.80
2023-05-31T19:20:57.048Z,3.95
2023-05-31T19:23:26.196Z,2.72
2023-05-31T19:25:57.991Z,2.97
2023-05-31T19:28:26.416Z,3.78
2023-05-31T19:30:55.778Z,2.80
2023-05-31T19:33:24.195Z,4.70
2023-05-31T19:35:52.461Z,2.88
2023-05-31T19:38:22.675Z,4.70
2023-05-31T19:40:51.035Z,4.35
2023-05-31T19:43:19.386Z,3.83
2023-05-31T19:45:48.100Z,3.72
2023-05-31T19:48:18.030Z,3.03
2023-05-31T19:50:46.553Z,2.70
2023-05-31T19:53:14.888Z,3.25
2023-05-31T19:55:45.245Z,3.03
2023-05-31T19:58:13.491Z,3.17
2023-05-31T20:00:42.928Z,3.63
2023-05-31T20:03:11.420Z,5.22
2023-05-31T20:05:39.791Z,3.50
2023-05-31T20:08:08.319Z,3.45
2023-05-31T20:10:37.925Z,4.82
2023-05-31T20:13:07.533Z,4.43
2023-05-31T20:15:39.032Z,3.85
2023-05-31T20:18:07.404Z,3.45
2023-05-31T20:20:36.918Z,4.30
2023-05-31T20:23:05.254Z,3.95
2023-05-31T20:25:33.895Z,4.95
2023-05-31T20:28:04.349Z,3.70
2023-05-31T20:30:35.342Z,3.67
2023-05-31T20:33:03.687Z,4.55
2023-05-31T20:35:32.031Z,2.78
2023-05-31T20:38:02.427Z,4.63
2023-05-31T20:40:31.167Z,2.85
2023-05-31T20:42:59.458Z,3.55
2023-05-31T20:45:28.092Z,3.92
2023-05-31T20:47:59.049Z,3.33
2023-05-31T20:50:27.929Z,3.53
2023-05-31T20:52:56.642Z,4.13
2023-05-31T20:55:25.568Z,7.78
2023-05-31T20:57:54.173Z,2.95
2023-05-31T21:00:25.654Z,5.07
2023-05-31T21:02:54.184Z,5.13
2023-05-31T21:05:25.848Z,4.15
2023-05-31T21:07:54.482Z,6.03
2023-05-31T21:10:22.764Z,3.80
2023-05-31T21:12:51.036Z,3.15
2023-05-31T21:15:21.924Z,3.58
2023-05-31T21:17:50.246Z,3.50
2023-05-31T21:20:18.606Z,4.15
2023-05-31T21:22:48.332Z,3.22
2023-05-31T21:25:21.694Z,5.65
2023-05-31T21:27:53.201Z,4.15
2023-05-31T21:30:21.559Z,5.35
2023-05-31T21:32:49.933Z,4.35
2023-05-31T21:35:18.760Z,3.28
2023-05-31T21:37:48.804Z,3.17
2023-05-31T21:40:21.179Z,4.80
2023-05-31T21:42:49.611Z,3.30
2023-05-31T21:45:18.013Z,3.42
2023-05-31T21:47:46.469Z,4.38
2023-05-31T21:50:14.802Z,4.20
2023-05-31T21:52:43.464Z,3.13
2023-05-31T21:55:15.038Z,3.40
2023-05-31T21:57:43.589Z,6.60
2023-05-31T22:00:13.026Z,3.38
2023-05-31T22:02:41.572Z,2.50
2023-05-31T22:05:10.205Z,3.88
2023-05-31T22:07:39.877Z,3.75
2023-05-31T22:10:09.610Z,3.55
2023-05-31T22:12:39.296Z,3.42
2023-05-31T22:15:08.235Z,4.18
2023-05-31T22:17:37.750Z,3.85
2023-05-31T22:20:08.497Z,4.28
2023-05-31T22:22:37.847Z,3.25
2023-05-31T22:25:14.074Z,3.58
2023-05-31T22:27:44.417Z,3.58
2023-05-31T22:30:13.532Z,4.43
2023-05-31T22:32:41.938Z,3.15
2023-05-31T22:35:11.369Z,4.47
2023-05-31T22:37:39.716Z,5.38
2023-05-31T22:40:09.189Z,4.82
2023-05-31T22:42:37.701Z,3.08
2023-05-31T22:45:08.156Z,2.63
2023-05-31T22:47:36.550Z,5.97
2023-05-31T22:50:05.250Z,6.10
2023-05-31T22:52:41.470Z,2.75
2023-05-31T22:55:10.125Z,3.65
2023-05-31T22:57:40.584Z,3.97
2023-05-31T23:00:12.097Z,3.45
2023-05-31T23:02:43.093Z,3.42
2023-05-31T23:05:12.505Z,4.13
2023-05-31T23:07:43.629Z,4.65
2023-05-31T23:10:14.771Z,6.75
2023-05-31T23:12:44.694Z,3.78
2023-05-31T23:15:14.708Z,4.60
2023-05-31T23:17:43.772Z,5.53
2023-05-31T23:20:13.853Z,4.57
2023-05-31T23:22:42.824Z,3.88
2023-05-31T23:25:20.538Z,3.40
2023-05-31T23:27:48.899Z,5.78
2023-05-31T23:30:18.575Z,2.90
2023-05-31T23:32:47.040Z,4.45
2023-05-31T23:35:15.458Z,5.00
2023-05-31T23:37:43.914Z,4.95
2023-05-31T23:40:12.917Z,3.20
2023-05-31T23:42:41.368Z,4.72
2023-05-31T23:45:12.017Z,4.65
2023-05-31T23:47:42.340Z,4.05
2023-05-31T23:50:11.571Z,3.40
2023-05-31T23:52:40.007Z,4.85
2023-05-31T23:55:08.533Z,3.28
2023-05-31T23:57:36.892Z,4.32
